Terminal Aerodrome Forecast
Issued by NWS

Home | Current Version | Previous Version | Text Only | Print | Product List | Glossary On
Versions: 1 2 3 4 5 6 7 8 9 10 11 12 13 14 15 16 17 18 19 20 21 22 23 24
000
FTUS41 KALY 201135
TAFPSF
TAF
KPSF 201135Z 2012/2112 VRB06KT 1SM BR VCSH BKN003 OVC015
      WS020/22040KT
      TEMPO 2012/2016 1/4SM FG BKN002
     FM201600 22008KT 6SM BR VCSH SCT005 BKN012 OVC045
     FM201900 22012KT P6SM BKN012 BKN035
     FM210000 22006KT P6SM BKN012=

USA.gov is the U.S. government's official web portal to all federal, state and local government web resources and services.